Time;durP1;ratioP1;P1;durP2;ratioP2;P2;SDS_P1;SDS_P2;PMS_P1;PMS_P2;Temp;Humidity;BMP_temperature;BMP_pressure;BME280_temperature;BME280_humidity;BME280_pressure;Samples;Min_cycle;Max_cycle;Signal;HPM_P1;HPM_P2
2022/04/18 00:02:18;;;;;;;10.27;7.93;;;;;;;11.88;42.20;101903.50;5092661;28;20036;-61
2022/04/18 00:04:43;;;;;;;12.27;7.30;;;;;;;11.84;42.56;101900.34;5091067;28;20024;-61
2022/04/18 00:07:10;;;;;;;14.80;8.00;;;;;;;11.86;42.55;101908.44;5093476;28;20406;-61
2022/04/18 00:09:36;;;;;;;11.23;7.53;;;;;;;11.86;42.55;101900.94;5084255;28;20044;-61
2022/04/18 00:12:01;;;;;;;10.00;8.27;;;;;;;11.80;42.59;101896.31;5072753;28;20028;-61
2022/04/18 00:14:26;;;;;;;9.38;7.88;;;;;;;11.83;42.39;101895.88;5081605;28;20107;-61
2022/04/18 00:16:55;;;;;;;10.70;8.25;;;;;;;11.76;42.78;101903.44;5092612;28;20111;-61
2022/04/18 00:19:21;;;;;;;13.15;8.82;;;;;;;11.74;42.09;101900.88;5092948;28;20016;-61
2022/04/18 00:21:47;;;;;;;13.90;9.10;;;;;;;11.73;42.40;101901.97;5075982;28;20039;-61
2022/04/18 00:24:17;;;;;;;10.82;8.43;;;;;;;11.66;42.64;101900.34;5082141;28;20035;-61
2022/04/18 00:26:43;;;;;;;11.35;7.80;;;;;;;11.62;42.56;101888.00;5087045;28;20483;-61
2022/04/18 00:29:08;;;;;;;11.38;7.63;;;;;;;11.58;42.36;101886.78;5082078;28;20032;-61
2022/04/18 00:31:33;;;;;;;12.88;7.93;;;;;;;11.55;42.40;101894.53;5090089;28;20032;-61
2022/04/18 00:34:01;;;;;;;10.13;7.88;;;;;;;11.47;42.82;101903.16;5090783;28;20027;-61
2022/04/18 00:36:27;;;;;;;9.75;7.05;;;;;;;11.42;42.79;101891.06;5093056;28;20015;-61
2022/04/18 00:38:52;;;;;;;9.20;7.30;;;;;;;11.38;42.86;101901.78;5091875;28;20529;-61
2022/04/18 00:41:17;;;;;;;12.18;7.75;;;;;;;11.42;42.80;101907.72;5092010;28;20038;-61
2022/04/18 00:43:47;;;;;;;8.43;7.30;;;;;;;11.37;42.87;101902.88;5092210;28;20020;-61
2022/04/18 00:46:15;;;;;;;9.45;6.97;;;;;;;11.37;42.59;101897.31;5089564;28;20020;-61
2022/04/18 00:48:40;;;;;;;8.30;6.68;;;;;;;11.38;42.27;101899.00;5082227;28;20111;-61
2022/04/18 00:51:10;;;;;;;7.65;6.40;;;;;;;11.42;42.04;101891.91;5072329;28;20111;-61
2022/04/18 00:53:37;;;;;;;7.82;6.18;;;;;;;11.38;42.00;101896.22;5090974;28;20024;-63
2022/04/18 00:56:03;;;;;;;8.85;6.03;;;;;;;11.42;41.80;101897.47;5078622;28;20028;-61
2022/04/18 00:58:28;;;;;;;6.90;5.38;;;;;;;11.36;41.99;101895.63;5089653;28;20024;-61
2022/04/18 01:00:56;;;;;;;7.13;5.68;;;;;;;11.36;42.10;101890.06;5090930;28;20048;-61
2022/04/18 01:03:22;;;;;;;8.27;5.10;;;;;;;11.27;42.13;101895.06;5089324;28;20040;-61
2022/04/18 01:05:48;;;;;;;9.15;5.75;;;;;;;11.28;42.00;101890.38;5092522;28;20476;-61
2022/04/18 01:08:14;;;;;;;5.90;5.28;;;;;;;11.20;41.58;101887.88;5088812;28;20028;-61
2022/04/18 01:10:39;;;;;;;6.63;4.88;;;;;;;11.17;42.33;101880.03;5092256;28;20521;-61
2022/04/18 01:13:05;;;;;;;11.63;5.20;;;;;;;11.15;42.41;101883.03;5090011;28;20050;-61
2022/04/18 01:15:30;;;;;;;5.65;5.05;;;;;;;11.13;42.44;101879.66;5091354;28;20036;-61
2022/04/18 01:17:55;;;;;;;9.00;5.25;;;;;;;11.09;42.32;101883.13;5083523;28;20040;-62
2022/04/18 01:20:21;;;;;;;7.68;4.93;;;;;;;11.04;42.50;101881.03;5091822;28;20063;-61
2022/04/18 01:22:52;;;;;;;7.72;5.22;;;;;;;10.93;42.92;101879.03;5091177;28;20028;-61
2022/04/18 01:30:53;;;;;;;5.80;4.95;;;;;;;10.81;43.04;101882.56;5072266;28;20079;-63
2022/04/18 01:33:19;;;;;;;5.65;5.07;;;;;;;10.81;42.84;101885.34;5078550;28;20047;-61
2022/04/18 01:35:44;;;;;;;7.47;4.70;;;;;;;10.77;42.94;101881.34;5091190;28;20031;-61
2022/04/18 01:38:09;;;;;;;5.80;4.80;;;;;;;10.73;43.29;101887.59;5091643;28;20033;-61
2022/04/18 01:40:37;;;;;;;8.65;4.80;;;;;;;10.67;42.75;101880.16;5091993;28;20024;-61
2022/04/18 01:43:06;;;;;;;5.07;4.55;;;;;;;10.71;43.08;101886.94;5091074;28;20022;-61
2022/04/18 01:45:31;;;;;;;7.55;5.07;;;;;;;10.64;43.56;101883.38;5089821;28;20042;-61
2022/04/18 01:48:00;;;;;;;7.63;4.85;;;;;;;10.65;43.72;101888.72;5091382;28;20032;-61
2022/04/18 01:50:26;;;;;;;5.68;4.53;;;;;;;10.59;43.02;101886.84;5091144;28;20032;-61
2022/04/18 01:52:51;;;;;;;5.75;4.60;;;;;;;10.59;43.13;101884.06;5090341;28;20043;-61
2022/04/18 01:55:16;;;;;;;5.50;4.53;;;;;;;10.59;43.57;101874.91;5071140;28;20033;-61
2022/04/18 01:57:41;;;;;;;6.55;4.93;;;;;;;10.63;43.60;101878.91;5070174;28;20063;-61
2022/04/18 02:00:07;;;;;;;8.50;4.70;;;;;;;10.62;43.56;101875.28;5076558;28;20117;-61
2022/04/18 02:02:33;;;;;;;4.90;4.40;;;;;;;10.54;43.28;101873.66;5075613;28;20119;-61
2022/04/18 02:05:00;;;;;;;6.18;4.65;;;;;;;10.51;43.75;101870.47;5072656;28;20379;-60
2022/04/18 02:07:25;;;;;;;5.40;4.30;;;;;;;10.50;43.83;101869.63;5089345;28;20113;-61
2022/04/18 02:09:50;;;;;;;6.22;4.60;;;;;;;10.50;43.64;101864.09;5089521;28;20507;-60
2022/04/18 02:12:16;;;;;;;7.03;4.47;;;;;;;10.48;43.36;101863.44;5085190;28;20116;-61
2022/04/18 02:14:45;;;;;;;7.53;4.22;;;;;;;10.39;43.35;101869.53;5087360;28;20510;-61
2022/04/18 02:17:10;;;;;;;5.10;4.60;;;;;;;10.36;43.66;101864.44;5077975;28;20425;-62
2022/04/18 02:19:38;;;;;;;6.50;4.22;;;;;;;10.35;43.67;101863.59;5079339;28;20150;-61
2022/04/18 02:22:03;;;;;;;7.32;4.15;;;;;;;10.32;43.91;101858.47;5093750;28;20047;-62
2022/04/18 02:24:29;;;;;;;6.15;4.03;;;;;;;10.27;43.43;101861.09;5096005;28;20090;-62
2022/04/18 02:26:57;;;;;;;4.75;4.00;;;;;;;10.24;43.77;101865.13;5098041;28;20028;-61
2022/04/18 02:29:23;;;;;;;5.65;4.20;;;;;;;10.20;43.99;101857.50;5095948;28;20024;-60
2022/04/18 02:34:35;;;;;;;4.40;3.42;;;;;;;10.17;43.68;101852.38;5078445;28;20038;-60
2022/04/18 02:37:00;;;;;;;5.22;4.07;;;;;;;10.16;44.24;101853.47;5086338;28;20036;-60
2022/04/18 02:39:26;;;;;;;8.23;3.80;;;;;;;10.12;43.82;101852.22;5096382;28;20037;-61
2022/04/18 02:41:51;;;;;;;7.90;4.00;;;;;;;10.05;44.10;101852.25;5097540;28;20054;-61
2022/04/18 02:44:19;;;;;;;4.93;3.97;;;;;;;10.02;44.07;101850.81;5098388;28;20111;-61
2022/04/18 02:46:44;;;;;;;4.82;4.07;;;;;;;9.98;44.38;101848.69;5096119;28;20048;-61
2022/04/18 02:49:09;;;;;;;5.13;4.00;;;;;;;9.93;44.34;101843.81;5095247;28;20467;-61
2022/04/18 02:51:37;;;;;;;4.07;3.70;;;;;;;9.95;44.42;101840.84;5096218;28;20028;-61
2022/04/18 02:54:05;;;;;;;4.40;3.90;;;;;;;9.92;44.64;101832.97;5092909;28;20578;-60
2022/04/18 02:56:31;;;;;;;6.40;4.05;;;;;;;9.91;44.77;101834.88;5096412;28;20036;-61
2022/04/18 02:58:56;;;;;;;4.90;3.60;;;;;;;9.89;44.66;101828.69;5095749;28;20070;-61
2022/04/18 03:01:21;;;;;;;4.10;3.70;;;;;;;9.87;45.06;101833.63;5092472;28;20033;-60
2022/04/18 03:03:49;;;;;;;9.73;3.78;;;;;;;9.84;44.63;101832.16;5098933;28;20173;-60
2022/04/18 03:06:15;;;;;;;5.70;3.90;;;;;;;9.82;45.02;101814.91;5095073;28;20387;-61
2022/04/18 03:08:40;;;;;;;4.20;3.80;;;;;;;9.80;44.66;101825.34;5096325;28;20024;-61
2022/04/18 03:11:06;;;;;;;6.20;4.10;;;;;;;9.82;44.59;101819.56;5094380;28;20383;-61
2022/04/18 03:13:33;;;;;;;6.78;4.20;;;;;;;9.82;44.97;101825.13;5093503;28;20088;-60
2022/04/18 03:16:02;;;;;;;7.00;5.28;;;;;;;9.76;45.09;101812.19;5097870;28;20016;-61
2022/04/18 03:18:28;;;;;;;6.50;4.88;;;;;;;9.72;44.91;101824.78;5096239;28;20557;-60
2022/04/18 03:20:57;;;;;;;8.13;5.72;;;;;;;9.69;45.11;101822.47;5097725;28;20127;-61
2022/04/18 03:23:22;;;;;;;8.98;6.03;;;;;;;9.65;45.35;101822.06;5095339;28;20115;-61
2022/04/18 03:25:47;;;;;;;8.15;6.13;;;;;;;9.69;45.17;101828.00;5093506;28;20519;-60
2022/04/18 03:28:12;;;;;;;8.88;7.05;;;;;;;9.63;44.82;101817.78;5078869;28;20036;-60
2022/04/18 03:30:39;;;;;;;7.82;6.57;;;;;;;9.58;45.11;101822.09;5074085;28;20040;-60
2022/04/18 03:33:04;;;;;;;7.80;6.70;;;;;;;9.54;45.11;101820.84;5088141;28;20032;-60
2022/04/18 03:35:35;;;;;;;9.88;7.28;;;;;;;9.49;45.74;101817.88;5093459;28;20035;-60
2022/04/18 03:40:44;;;;;;;10.10;6.63;;;;;;;9.48;45.23;101820.91;5089135;28;20043;-60
2022/04/18 03:43:10;;;;;;;8.48;6.78;;;;;;;9.44;45.81;101830.72;5089105;28;20399;-61
2022/04/18 03:45:35;;;;;;;7.88;6.93;;;;;;;9.39;45.37;101825.81;5093669;28;20032;-60
2022/04/18 03:48:00;;;;;;;9.65;6.40;;;;;;;9.37;45.98;101830.75;5091959;28;20027;-60
2022/04/18 03:50:26;;;;;;;9.95;6.68;;;;;;;9.28;45.97;101821.00;5088325;28;20784;-61
2022/04/18 03:52:51;;;;;;;10.57;6.50;;;;;;;9.27;46.28;101835.91;5092583;28;20036;-60
2022/04/18 03:55:16;;;;;;;7.35;6.18;;;;;;;9.26;46.26;101823.13;5092120;28;20028;-60
2022/04/18 03:57:42;;;;;;;8.35;5.82;;;;;;;9.24;46.40;101823.38;5092620;28;20028;-60
2022/04/18 04:00:08;;;;;;;9.52;6.00;;;;;;;9.29;46.82;101826.31;5093677;28;20491;-61
2022/04/18 04:02:34;;;;;;;6.60;5.50;;;;;;;9.24;46.59;101825.28;5088871;28;20028;-61
2022/04/18 04:04:59;;;;;;;8.10;5.85;;;;;;;9.18;46.17;101821.47;5094339;28;20050;-61
2022/04/18 04:07:24;;;;;;;8.68;5.70;;;;;;;9.13;46.27;101825.97;5091388;28;20047;-61
2022/04/18 04:09:53;;;;;;;5.72;5.22;;;;;;;9.07;46.54;101819.38;5091098;28;20032;-62
2022/04/18 04:12:26;;;;;;;10.60;5.57;;;;;;;9.08;46.81;101815.56;5093837;28;20032;-61
2022/04/18 04:14:52;;;;;;;5.93;5.18;;;;;;;9.03;46.76;101813.44;5089494;28;20028;-61
2022/04/18 04:17:17;;;;;;;6.90;5.10;;;;;;;8.98;46.41;101820.69;5088734;28;20031;-61
2022/04/18 04:19:44;;;;;;;6.32;5.20;;;;;;;9.06;46.50;101824.06;5091664;28;20399;-60
2022/04/18 04:22:09;;;;;;;6.63;5.20;;;;;;;9.03;46.70;101812.59;5091856;28;20028;-60
2022/04/18 04:24:34;;;;;;;5.85;5.00;;;;;;;8.93;46.56;101815.84;5091560;28;20044;-60
2022/04/18 04:27:00;;;;;;;6.82;5.10;;;;;;;8.94;46.94;101811.13;5093251;28;20035;-60
2022/04/18 04:29:25;;;;;;;6.57;5.10;;;;;;;8.93;46.62;101814.97;5090489;28;20063;-61
2022/04/18 04:31:50;;;;;;;7.63;5.22;;;;;;;8.88;47.14;101820.31;5091534;28;20156;-60
2022/04/18 04:34:16;;;;;;;5.70;5.07;;;;;;;8.80;46.85;101819.50;5092492;28;20408;-61
2022/04/18 04:36:41;;;;;;;5.95;4.93;;;;;;;8.81;47.33;101818.44;5093212;28;20036;-60
2022/04/18 04:39:07;;;;;;;6.97;5.70;;;;;;;8.85;47.39;101821.63;5089915;28;20157;-61
2022/04/18 04:41:32;;;;;;;6.53;4.90;;;;;;;8.76;47.03;101812.69;5093112;28;20095;-60
2022/04/18 04:43:58;;;;;;;7.85;5.07;;;;;;;8.74;47.53;101822.28;5091108;28;20020;-60
2022/04/18 04:46:23;;;;;;;7.80;4.65;;;;;;;8.76;47.42;101817.34;5088789;28;20539;-60
2022/04/18 04:48:48;;;;;;;5.65;4.95;;;;;;;8.73;47.18;101817.81;5090596;28;20019;-61
2022/04/18 04:51:14;;;;;;;7.07;5.10;;;;;;;8.77;47.85;101822.69;5083042;28;20533;-60
2022/04/18 04:53:39;;;;;;;6.15;4.95;;;;;;;8.76;47.99;101826.53;5071654;28;20044;-61
2022/04/18 04:56:04;;;;;;;7.32;5.25;;;;;;;8.79;47.43;101823.31;5084353;28;20027;-60
2022/04/18 04:58:30;;;;;;;6.68;5.03;;;;;;;8.75;47.46;101815.66;5088142;28;20036;-61
2022/04/18 05:00:56;;;;;;;7.60;5.20;;;;;;;8.72;47.93;101821.63;5087208;28;20093;-61
2022/04/18 05:03:21;;;;;;;9.15;5.15;;;;;;;8.69;47.56;101824.84;5087959;28;20031;-61
2022/04/18 05:05:47;;;;;;;7.38;5.30;;;;;;;8.70;47.81;101832.09;5092955;28;20040;-60
2022/04/18 05:08:12;;;;;;;6.25;4.95;;;;;;;8.65;48.42;101829.97;5089118;28;20063;-61
2022/04/18 05:10:38;;;;;;;9.32;5.15;;;;;;;8.66;47.57;101831.66;5091097;28;20079;-61
2022/04/18 05:13:03;;;;;;;6.80;4.93;;;;;;;8.68;47.57;101837.81;5088764;28;20024;-61
2022/04/18 05:15:30;;;;;;;8.57;5.55;;;;;;;8.70;47.63;101830.16;5088003;28;20035;-60
2022/04/18 05:17:55;;;;;;;7.53;4.82;;;;;;;8.72;48.07;101825.25;5092705;28;20081;-60
2022/04/18 05:20:26;;;;;;;9.07;5.10;;;;;;;8.83;48.07;101829.25;5074274;28;20048;-62
2022/04/18 05:22:54;;;;;;;9.30;4.60;;;;;;;8.90;47.73;101826.50;5085302;28;20040;-61
2022/04/18 05:25:21;;;;;;;8.75;5.00;;;;;;;8.92;47.89;101827.97;5090987;28;20073;-61
2022/04/18 05:27:47;;;;;;;6.47;4.82;;;;;;;9.00;47.69;101835.16;5090336;28;20101;-58
2022/04/18 05:30:12;;;;;;;9.18;4.53;;;;;;;9.07;47.33;101830.47;5077575;28;20797;-61
2022/04/18 05:32:37;;;;;;;6.03;4.38;;;;;;;9.11;47.44;101823.41;5072264;28;20032;-61
2022/04/18 05:35:03;;;;;;;6.72;4.57;;;;;;;9.13;46.77;101829.59;5082860;28;20387;-60
2022/04/18 05:37:31;;;;;;;5.32;4.22;;;;;;;9.19;46.91;101827.84;5090804;28;20031;-60
2022/04/18 05:39:56;;;;;;;8.13;4.43;;;;;;;9.26;46.86;101835.06;5091995;28;20031;-60
2022/04/18 05:42:23;;;;;;;7.22;4.20;;;;;;;9.31;46.33;101838.03;5087493;28;20051;-60
2022/04/18 05:44:49;;;;;;;5.70;3.95;;;;;;;9.44;45.72;101842.66;5080780;28;20380;-60
2022/04/18 05:47:14;;;;;;;4.85;4.35;;;;;;;9.55;45.74;101835.56;5091330;28;20027;-60
2022/04/18 05:49:39;;;;;;;7.15;4.20;;;;;;;9.52;45.16;101833.22;5090325;28;20066;-60
2022/04/18 05:52:05;;;;;;;5.90;3.70;;;;;;;9.67;44.45;101835.69;5082921;28;20020;-60
2022/04/18 05:54:30;;;;;;;5.28;4.28;;;;;;;9.70;43.83;101840.78;5093842;28;20030;-60
2022/04/18 05:56:55;;;;;;;5.68;4.22;;;;;;;9.84;43.84;101836.84;5093506;28;20076;-59
2022/04/18 05:59:21;;;;;;;5.07;4.57;;;;;;;9.92;43.78;101828.25;5080547;28;20032;-60
2022/04/18 06:01:46;;;;;;;7.07;4.20;;;;;;;9.97;43.25;101836.75;5090858;28;20093;-60
2022/04/18 06:04:11;;;;;;;6.95;4.40;;;;;;;10.09;43.64;101832.16;5087234;28;20054;-60
2022/04/18 06:06:37;;;;;;;7.40;4.53;;;;;;;10.14;43.39;101833.41;5085778;28;20031;-60
2022/04/18 06:09:02;;;;;;;6.05;4.85;;;;;;;10.24;42.98;101829.06;5087950;28;20387;-60
2022/04/18 06:11:28;;;;;;;6.03;4.07;;;;;;;10.35;42.51;101834.97;5091489;28;20047;-60
2022/04/18 06:13:54;;;;;;;4.05;3.65;;;;;;;10.41;42.80;101834.91;5095871;28;20020;-60
2022/04/18 06:16:20;;;;;;;7.57;4.05;;;;;;;10.51;42.44;101838.00;5106322;28;20031;-60
2022/04/18 06:18:45;;;;;;;6.65;3.83;;;;;;;10.63;41.39;101835.34;5100987;28;20035;-61
2022/04/18 06:21:13;;;;;;;5.28;3.70;;;;;;;10.75;41.27;101838.19;5100435;28;20607;-60
2022/04/18 06:23:38;;;;;;;3.75;3.28;;;;;;;10.87;41.28;101841.06;5089847;28;20025;-60
2022/04/18 06:26:04;;;;;;;4.13;3.70;;;;;;;11.01;41.08;101837.91;5090917;28;20493;-60
2022/04/18 06:28:32;;;;;;;5.53;3.55;;;;;;;11.12;40.59;101836.28;5088558;28;20032;-60
2022/04/18 06:30:57;;;;;;;6.10;4.00;;;;;;;11.20;40.47;101837.88;5083006;28;20033;-61
2022/04/18 06:33:22;;;;;;;5.95;3.70;;;;;;;11.30;40.93;101839.03;5086639;28;20613;-60
2022/04/18 06:35:48;;;;;;;5.25;3.60;;;;;;;11.47;40.45;101838.38;5094333;28;20045;-60
2022/04/18 06:38:13;;;;;;;3.67;3.38;;;;;;;11.61;40.04;101839.88;5088795;28;20051;-60
2022/04/18 06:40:38;;;;;;;4.93;3.47;;;;;;;11.72;40.02;101833.53;5087622;28;20028;-60
2022/04/18 06:43:04;;;;;;;4.50;3.70;;;;;;;11.83;39.47;101840.25;5086853;28;20040;-60
2022/04/18 06:45:31;;;;;;;4.38;3.92;;;;;;;11.85;38.88;101824.16;5085493;28;20024;-60
2022/04/18 06:47:57;;;;;;;4.38;3.60;;;;;;;12.02;38.12;101832.66;5096003;28;20027;-60
2022/04/18 06:50:22;;;;;;;4.35;3.00;;;;;;;12.20;40.31;101827.00;5086105;28;20035;-60
2022/04/18 06:52:49;;;;;;;4.28;2.90;;;;;;;12.46;42.19;101834.06;5082780;28;20021;-59
2022/04/18 06:55:16;;;;;;;3.42;2.08;;;;;;;12.93;46.27;101839.59;5095538;28;20020;-59
2022/04/18 06:57:42;;;;;;;2.85;2.20;;;;;;;13.27;44.53;101835.03;5110186;28;20027;-61
2022/04/18 07:00:10;;;;;;;3.42;2.92;;;;;;;13.43;41.29;101838.13;5098778;28;20481;-61
2022/04/18 07:02:35;;;;;;;5.95;2.72;;;;;;;13.77;41.57;101839.09;5093135;28;20067;-61
2022/04/18 07:05:01;;;;;;;4.00;2.75;;;;;;;13.85;39.33;101830.31;5102282;28;20062;-61
2022/04/18 07:07:26;;;;;;;4.70;2.55;;;;;;;14.08;38.57;101834.06;5099471;28;20486;-61
2022/04/18 07:09:51;;;;;;;4.45;2.30;;;;;;;14.32;37.96;101824.41;5091542;28;20108;-61
2022/04/18 07:12:23;;;;;;;2.72;2.42;;;;;;;14.53;37.29;101824.75;5094818;28;20050;-61
2022/04/18 07:14:51;;;;;;;6.70;3.37;;;;;;;14.39;34.15;101829.84;5091342;28;20559;-61
2022/04/18 07:17:17;;;;;;;4.72;2.72;;;;;;;14.71;36.40;101824.47;5097557;28;20058;-60
2022/04/18 07:19:42;;;;;;;4.72;2.70;;;;;;;14.86;35.84;101830.28;5097086;28;20435;-61
2022/04/18 07:22:07;;;;;;;2.92;2.30;;;;;;;15.01;35.26;101831.59;5088164;28;20036;-61
2022/04/18 07:24:33;;;;;;;2.97;2.30;;;;;;;15.07;34.36;101823.03;5092565;28;20507;-60
2022/04/18 07:27:01;;;;;;;7.15;2.58;;;;;;;15.16;34.02;101820.59;5102104;28;20036;-61
2022/04/18 07:29:27;;;;;;;3.28;2.53;;;;;;;15.24;34.32;101814.56;5092988;28;20028;-62
2022/04/18 07:31:52;;;;;;;3.28;2.38;;;;;;;15.35;34.12;101816.38;5078886;28;20029;-63
2022/04/18 07:34:21;;;;;;;3.10;2.20;;;;;;;15.47;33.72;101811.47;5082210;28;20047;-60
2022/04/18 07:36:49;;;;;;;3.25;2.17;;;;;;;15.61;33.33;101823.13;5093130;28;20031;-61
2022/04/18 07:39:14;;;;;;;3.10;2.40;;;;;;;15.76;33.67;101811.28;5090498;28;20060;-61
2022/04/18 07:41:40;;;;;;;4.78;2.28;;;;;;;15.80;32.43;101806.84;5091152;28;20116;-61
2022/04/18 07:44:05;;;;;;;6.30;2.35;;;;;;;15.90;32.03;101806.91;5091531;28;20031;-61
2022/04/18 07:46:34;;;;;;;2.70;2.28;;;;;;;15.83;31.79;101803.47;5083482;28;20020;-61
2022/04/18 07:48:59;;;;;;;4.13;2.38;;;;;;;16.05;32.25;101810.97;5090588;28;20044;-61
2022/04/18 07:51:31;;;;;;;2.72;2.30;;;;;;;15.93;30.65;101806.38;5097963;28;20031;-61
2022/04/18 07:54:01;;;;;;;3.17;2.40;;;;;;;16.17;31.40;101798.47;5102100;28;20585;-63
2022/04/18 07:56:27;;;;;;;3.88;2.20;;;;;;;16.37;32.10;101800.59;5090519;28;20036;-61
2022/04/18 07:58:55;;;;;;;6.03;2.53;;;;;;;16.24;29.91;101803.00;5088960;28;20052;-62
2022/04/18 08:01:21;;;;;;;5.18;2.13;;;;;;;16.32;30.58;101794.09;5098072;28;20055;-62
2022/04/18 08:03:47;;;;;;;3.22;2.10;;;;;;;16.56;31.43;101798.19;5093844;28;20043;-62
2022/04/18 08:06:12;;;;;;;3.92;1.88;;;;;;;16.69;30.90;101802.47;5088089;28;20127;-63
2022/04/18 08:08:38;;;;;;;3.55;2.20;;;;;;;16.81;31.33;101803.13;5096857;28;20453;-63
2022/04/18 08:11:04;;;;;;;5.00;2.20;;;;;;;16.83;30.80;101808.50;5095178;28;20068;-61
2022/04/18 08:13:30;;;;;;;3.28;2.10;;;;;;;16.95;31.18;101805.47;5086711;28;20042;-62
2022/04/18 08:15:55;;;;;;;4.18;2.20;;;;;;;17.00;30.17;101809.13;5093338;28;20028;-62
2022/04/18 08:18:21;;;;;;;3.30;2.45;;;;;;;17.02;29.76;101800.47;5099467;28;20031;-63
2022/04/18 08:20:47;;;;;;;3.50;2.13;;;;;;;16.88;29.12;101809.34;5090412;28;20139;-63
2022/04/18 08:23:13;;;;;;;3.75;2.38;;;;;;;16.91;29.76;101805.16;5112300;28;20477;-65
2022/04/18 08:25:38;;;;;;;3.30;2.30;;;;;;;17.05;30.16;101805.50;5097612;28;20024;-65
2022/04/18 08:28:04;;;;;;;6.28;2.70;;;;;;;17.12;30.04;101806.94;5093656;28;20078;-64
2022/04/18 08:30:29;;;;;;;4.65;2.33;;;;;;;17.09;28.55;101806.63;5112298;28;20023;-63
2022/04/18 08:32:54;;;;;;;3.90;2.40;;;;;;;17.18;29.58;101807.81;5104200;28;20440;-64
2022/04/18 08:35:20;;;;;;;3.63;1.98;;;;;;;17.20;29.62;101802.75;5100333;28;20428;-65
2022/04/18 08:37:46;;;;;;;4.45;2.33;;;;;;;17.17;29.55;101808.91;5090485;28;20028;-64
2022/04/18 08:40:13;;;;;;;7.05;2.38;;;;;;;17.36;29.67;101798.88;5107891;28;20023;-64
2022/04/18 08:42:40;;;;;;;4.57;2.30;;;;;;;17.42;29.30;101808.19;5102436;28;20047;-64
2022/04/18 08:45:08;;;;;;;3.33;2.00;;;;;;;17.41;28.48;101812.94;5074851;28;20028;-64
2022/04/18 08:53:12;;;;;;;27.23;3.70;;;;;;;17.58;28.83;101806.25;5084909;28;20063;-63
2022/04/18 08:55:38;;;;;;;10.73;2.83;;;;;;;17.42;27.88;101806.22;5094749;28;20493;-64
2022/04/18 08:58:05;;;;;;;24.98;3.28;;;;;;;17.53;29.26;101806.25;5089436;28;20118;-63
2022/04/18 09:00:30;;;;;;;14.60;2.83;;;;;;;17.56;29.54;101800.06;5088541;28;20052;-70
2022/04/18 09:02:55;;;;;;;12.82;2.70;;;;;;;17.64;29.59;101802.31;5079656;28;20805;-63
2022/04/18 09:05:23;;;;;;;7.47;2.40;;;;;;;17.56;29.15;101794.44;5086718;28;20118;-63
2022/04/18 09:08:03;;;;;;;8.80;2.40;;;;;;;17.65;29.63;101804.03;5086909;28;20506;-63
2022/04/18 09:10:29;;;;;;;7.05;2.30;;;;;;;17.64;28.47;101802.31;5080411;28;20036;-63
2022/04/18 09:13:06;;;;;;;7.72;2.20;;;;;;;17.67;29.56;101798.97;5079282;28;20028;-63
2022/04/18 09:15:36;;;;;;;5.22;2.10;;;;;;;17.66;28.53;101798.13;5095959;28;20123;-63
2022/04/18 09:18:10;;;;;;;7.60;2.67;;;;;;;17.66;29.06;101800.09;5091506;28;20021;-63
2022/04/18 09:20:44;;;;;;;3.25;2.28;;;;;;;17.65;28.98;101799.25;5073696;28;20036;-64
2022/04/18 09:23:26;;;;;;;5.18;2.15;;;;;;;17.60;28.64;101802.03;5082093;28;20032;-62
2022/04/18 09:26:10;;;;;;;6.28;1.98;;;;;;;17.63;29.00;101795.03;5085175;28;20044;-63
2022/04/18 09:28:38;;;;;;;3.08;2.25;;;;;;;17.59;28.58;101800.34;5087927;28;20456;-64
2022/04/18 09:31:07;;;;;;;4.82;2.22;;;;;;;17.60;28.43;101796.41;5089268;28;20156;-63
2022/04/18 09:33:38;;;;;;;4.93;2.00;;;;;;;17.62;28.83;101798.97;5099485;28;20044;-62
2022/04/18 09:36:08;;;;;;;2.90;2.03;;;;;;;17.72;29.06;101792.50;5091267;28;20105;-61
2022/04/18 09:38:39;;;;;;;4.05;2.17;;;;;;;17.79;29.08;101790.31;5091959;28;20047;-62
2022/04/18 09:41:05;;;;;;;5.28;2.47;;;;;;;17.83;28.54;101786.66;5088813;28;20062;-63
2022/04/18 09:43:38;;;;;;;3.33;2.10;;;;;;;17.90;29.10;101795.66;5086117;28;20154;-62
2022/04/18 09:46:04;;;;;;;5.68;2.30;;;;;;;17.85;28.77;101792.84;5082316;28;20028;-62
2022/04/18 09:48:33;;;;;;;4.50;2.33;;;;;;;17.88;29.28;101780.19;5085668;28;20035;-61
2022/04/18 09:50:59;;;;;;;6.78;2.28;;;;;;;17.95;29.26;101788.38;5091988;28;20032;-61
2022/04/18 09:53:25;;;;;;;4.78;2.38;;;;;;;17.88;29.15;101781.06;5091202;28;20043;-62
2022/04/18 09:55:52;;;;;;;3.95;2.47;;;;;;;18.05;29.13;101780.78;5089575;28;20641;-64
2022/04/18 09:58:17;;;;;;;5.80;2.75;;;;;;;18.04;28.91;101776.31;5087957;28;20031;-63
2022/04/18 10:00:43;;;;;;;6.75;5.78;;;;;;;18.13;29.13;101766.19;5090041;28;21837;-63
2022/04/18 10:03:09;;;;;;;6.57;4.50;;;;;;;18.25;28.90;101768.69;5078813;28;20028;-63
2022/04/18 10:05:35;;;;;;;3.88;3.58;;;;;;;18.31;29.14;101773.19;5091296;28;20028;-63
2022/04/18 10:08:05;;;;;;;5.00;3.90;;;;;;;18.26;28.99;101764.75;5085140;28;20078;-62
2022/04/18 10:10:35;;;;;;;5.50;3.83;;;;;;;18.34;29.07;101755.75;5087445;28;20032;-62
2022/04/18 10:13:05;;;;;;;6.00;3.72;;;;;;;18.41;28.83;101761.09;5079041;28;20032;-62
2022/04/18 10:15:33;;;;;;;5.10;3.30;;;;;;;18.44;28.34;101759.69;5081903;28;20035;-62
2022/04/18 10:18:03;;;;;;;4.60;3.17;;;;;;;18.45;28.29;101759.38;5085846;28;20055;-61
2022/04/18 10:21:06;;;;;;;3.42;3.13;;;;;;;18.39;29.14;101755.75;5084102;28;20558;-63
2022/04/18 10:24:07;;;;;;;4.97;2.65;;;;;;;18.43;28.95;101753.22;5074233;28;20104;-63
2022/04/18 10:26:57;;;;;;;5.55;2.70;;;;;;;18.51;28.22;101743.34;5081490;28;20406;-63
2022/04/18 10:29:24;;;;;;;6.95;2.80;;;;;;;18.42;28.15;101743.09;5075514;28;20174;-64
2022/04/18 10:31:53;;;;;;;6.13;2.75;;;;;;;18.37;27.64;101743.94;5078226;28;20364;-63
2022/04/18 10:34:22;;;;;;;3.05;2.50;;;;;;;18.37;27.56;101737.47;5077526;28;20036;-62
2022/04/18 10:36:52;;;;;;;5.63;2.70;;;;;;;18.39;27.99;101730.47;5092184;28;20085;-63
2022/04/18 10:39:18;;;;;;;4.00;2.53;;;;;;;18.50;27.08;101741.66;5087248;28;20157;-63
2022/04/18 10:41:45;;;;;;;2.30;2.10;;;;;;;18.56;27.32;101734.91;5099514;28;20047;-63
2022/04/18 10:44:18;;;;;;;5.15;2.83;;;;;;;18.56;26.96;101740.53;5096696;28;20482;-62
2022/04/18 10:46:53;;;;;;;4.18;2.28;;;;;;;18.60;27.37;101725.63;5088450;28;20081;-63
2022/04/18 10:49:20;;;;;;;3.35;2.53;;;;;;;18.60;26.55;101733.22;5090464;28;20083;-62
2022/04/18 10:51:48;;;;;;;3.70;2.72;;;;;;;18.58;25.66;101732.63;5086863;28;20093;-62
2022/04/18 10:54:20;;;;;;;4.32;2.70;;;;;;;18.61;27.17;101737.69;5083397;28;20062;-63
2022/04/18 10:56:50;;;;;;;5.68;2.70;;;;;;;18.67;25.74;101727.25;5087547;28;20047;-61
2022/04/18 10:59:20;;;;;;;3.15;2.47;;;;;;;18.72;26.03;101716.88;5086351;28;20715;-63
2022/04/18 11:01:49;;;;;;;6.68;2.53;;;;;;;18.75;26.07;101709.88;5081860;28;20024;-60
2022/04/18 11:04:15;;;;;;;3.53;2.67;;;;;;;18.84;26.47;101719.38;5087422;28;20364;-61
2022/04/18 11:06:41;;;;;;;6.07;2.92;;;;;;;18.72;24.91;101716.06;5099747;28;20031;-63
2022/04/18 11:09:08;;;;;;;3.20;2.50;;;;;;;18.71;25.50;101712.41;5091247;28;20467;-63
2022/04/18 11:11:48;;;;;;;4.40;2.90;;;;;;;18.73;24.96;101712.09;5097557;28;20028;-64
2022/04/18 11:14:18;;;;;;;3.55;2.88;;;;;;;18.79;25.87;101711.81;5085692;28;20028;-63
2022/04/18 11:16:43;;;;;;;2.65;2.33;;;;;;;18.85;26.75;101705.00;5096604;28;20035;-63
2022/04/18 11:19:15;;;;;;;3.27;2.97;;;;;;;18.79;25.64;101706.19;5095598;28;20034;-64
2022/04/18 11:21:57;;;;;;;4.63;2.40;;;;;;;18.85;26.95;101701.34;5109902;28;20656;-63
2022/04/18 11:24:40;;;;;;;5.32;2.63;;;;;;;18.87;27.62;101707.56;5100110;28;20044;-63
2022/04/18 11:27:22;;;;;;;4.50;2.72;;;;;;;18.87;26.46;101702.75;5095263;28;20059;-64
2022/04/18 11:29:54;;;;;;;;;;;;;;;18.87;27.96;101707.56;5098505;28;20028;-64
2022/04/18 11:32:24;;;;;;;3.58;3.05;;;;;;;18.87;25.81;101702.75;5091161;28;19912;-63
2022/04/18 11:34:51;;;;;;;3.30;2.83;;;;;;;18.85;25.78;101698.53;5091540;28;20035;-61
2022/04/18 11:37:27;;;;;;;5.45;2.70;;;;;;;18.92;26.78;101695.44;5087086;28;20480;-59
2022/04/18 11:39:57;;;;;;;3.28;2.42;;;;;;;18.90;26.40;101695.69;5083600;28;20046;-60
2022/04/18 11:42:24;;;;;;;5.88;3.50;;;;;;;18.80;25.39;101696.59;5091812;28;20479;-61
2022/04/18 11:44:55;;;;;;;5.10;3.38;;;;;;;18.82;25.28;101687.88;5078545;28;20115;-61